Weather at Mejit Atoll Airport

Public forecast

Using degrees Celsius for public forecast. Weather courtesy of forecast.io.

Closest aviation weather report (METAR) to Mejit Atoll Airport

Closest report is Marshall Islands International Airport, 194.7 nm (360.6 km) S.

2024/05/25 01:59 (retrieved 58 minutes ago)

PKMJ 250159Z 06011K 14SM SCT014 BKN045 OVC110 28/25 A2986

Closest aviation forecast (TAF) to Mejit Atoll Airport

Closest forecast is Wake Island Airfield, 593.4 nm (1,099.0 km) NNW.

2024/05/24 22:40 Ammendment (retrieved 4 hours ago)

TAF AMD PWAK 242230Z 2422/2604 05012KT 9999 SCT015 BKN030 QNH2996INS TEMPO 2422/2506 05015KT BKN019 BECMG 2514/2515 03012KT 9000 -SHRA BKN030 BKN040 OVC045 QNH2995INS TX31/2503Z TN26/2518Z FOR MIL USE ONLY